createdAt,value
2023-09-15T00:00:37.832Z,11.95
2023-09-15T00:03:12.477Z,14.70
2023-09-15T00:05:42.698Z,13.02
2023-09-15T00:08:13.869Z,12.15
2023-09-15T00:10:43.855Z,12.38
2023-09-15T00:13:15.384Z,14.52
2023-09-15T00:15:44.126Z,13.80
2023-09-15T00:18:14.421Z,15.30
2023-09-15T00:20:43.098Z,14.10
2023-09-15T00:23:12.770Z,12.10
2023-09-15T00:25:49.082Z,14.68
2023-09-15T00:28:18.112Z,15.95
2023-09-15T00:30:47.044Z,13.45
2023-09-15T00:33:17.396Z,12.70
2023-09-15T00:35:48.803Z,15.13
2023-09-15T00:38:18.279Z,14.95
2023-09-15T00:40:48.425Z,13.82
2023-09-15T00:43:17.649Z,14.60
2023-09-15T00:45:47.117Z,12.25
2023-09-15T00:48:19.806Z,15.25
2023-09-15T00:50:48.584Z,13.00
2023-09-15T00:53:21.013Z,13.30
2023-09-15T00:55:53.838Z,12.43
2023-09-15T00:58:22.812Z,15.57
2023-09-15T01:00:55.203Z,12.32
2023-09-15T01:03:26.937Z,12.73
2023-09-15T01:08:25.785Z,14.02
2023-09-15T01:10:56.156Z,12.68
2023-09-15T01:13:28.009Z,12.93
2023-09-15T01:18:40.932Z,12.95
2023-09-15T01:21:34.002Z,12.68
2023-09-15T01:24:39.455Z,14.05
2023-09-15T01:27:32.124Z,13.23
2023-09-15T01:30:18.179Z,12.88
2023-09-15T01:32:48.880Z,14.70
2023-09-15T01:35:17.932Z,14.18
2023-09-15T01:37:47.396Z,13.95
2023-09-15T01:40:15.966Z,13.63
2023-09-15T01:42:45.900Z,15.82
2023-09-15T01:45:19.930Z,13.83
2023-09-15T01:47:51.704Z,13.60
2023-09-15T01:50:21.742Z,16.35
2023-09-15T01:52:51.253Z,17.85
2023-09-15T01:55:20.833Z,16.42
2023-09-15T01:57:50.212Z,16.25
2023-09-15T02:00:20.726Z,13.65
2023-09-15T02:02:49.483Z,13.88
2023-09-15T02:05:25.754Z,15.63
2023-09-15T02:07:55.996Z,15.13
2023-09-15T02:10:24.285Z,15.27
2023-09-15T02:12:53.010Z,15.63
2023-09-15T02:15:23.926Z,15.48
2023-09-15T02:17:54.469Z,15.57
2023-09-15T02:20:23.919Z,16.25
2023-09-15T02:22:52.957Z,14.13
2023-09-15T02:25:21.558Z,14.85
2023-09-15T02:27:50.497Z,15.38
2023-09-15T02:30:19.177Z,14.13
2023-09-15T02:32:49.588Z,16.85
2023-09-15T02:35:18.979Z,16.10
2023-09-15T02:37:47.485Z,15.88
2023-09-15T02:40:16.618Z,14.15
2023-09-15T02:42:45.357Z,15.30
2023-09-15T02:45:14.044Z,15.00
2023-09-15T02:47:43.066Z,13.65
2023-09-15T02:50:13.078Z,16.50
2023-09-15T02:52:41.775Z,15.70
2023-09-15T02:55:11.202Z,14.20
2023-09-15T02:57:39.758Z,16.60
2023-09-15T03:00:15.257Z,19.38
2023-09-15T03:02:45.779Z,17.00
2023-09-15T03:05:16.705Z,13.95
2023-09-15T03:07:44.973Z,15.50
2023-09-15T03:10:13.902Z,18.48
2023-09-15T03:12:43.528Z,16.55
2023-09-15T03:15:14.293Z,16.98
2023-09-15T03:17:45.957Z,15.90
2023-09-15T03:20:17.514Z,15.30
2023-09-15T03:22:46.374Z,15.88
2023-09-15T03:25:20.406Z,16.67
2023-09-15T03:27:49.157Z,19.17
2023-09-15T03:30:18.329Z,16.73
2023-09-15T03:32:52.395Z,16.38
2023-09-15T03:35:23.038Z,15.90
2023-09-15T03:37:51.627Z,16.85
2023-09-15T03:40:23.576Z,16.20
2023-09-15T03:45:22.838Z,17.25
2023-09-15T03:47:51.470Z,16.08
2023-09-15T03:50:22.936Z,18.23
2023-09-15T03:52:53.293Z,19.25
2023-09-15T03:55:23.117Z,18.23
2023-09-15T03:57:52.509Z,19.10
2023-09-15T04:00:23.068Z,18.45
2023-09-15T04:02:51.763Z,19.60
2023-09-15T04:05:20.159Z,17.85
2023-09-15T04:07:48.605Z,16.05
2023-09-15T04:10:18.726Z,19.38
2023-09-15T04:12:47.680Z,20.52
2023-09-15T04:15:16.935Z,18.55
2023-09-15T04:17:45.430Z,20.15
2023-09-15T04:20:15.118Z,18.25
2023-09-15T04:22:44.492Z,17.63
2023-09-15T04:25:16.292Z,19.98
2023-09-15T04:27:49.133Z,19.40
2023-09-15T04:30:18.372Z,18.17
2023-09-15T04:35:20.583Z,15.93
2023-09-15T04:37:50.732Z,17.63
2023-09-15T04:40:20.687Z,17.33
2023-09-15T04:42:50.681Z,15.45
2023-09-15T04:45:20.410Z,15.88
2023-09-15T04:47:54.600Z,17.50
2023-09-15T04:50:23.349Z,16.98
2023-09-15T04:52:54.085Z,16.33
2023-09-15T04:55:26.492Z,16.00
2023-09-15T04:57:57.313Z,17.15
2023-09-15T05:00:30.144Z,14.65
2023-09-15T05:03:00.403Z,15.95
2023-09-15T05:05:30.931Z,15.05
2023-09-15T05:07:59.643Z,16.65
2023-09-15T05:10:28.502Z,16.55
2023-09-15T05:13:00.269Z,16.67
2023-09-15T05:15:28.743Z,16.35
2023-09-15T05:17:57.321Z,17.98
2023-09-15T05:20:28.678Z,17.08
2023-09-15T05:22:57.230Z,19.45
2023-09-15T05:25:27.303Z,16.63
2023-09-15T05:27:56.348Z,17.20
2023-09-15T05:30:28.770Z,18.38
2023-09-15T05:32:58.556Z,17.27
2023-09-15T05:35:27.540Z,17.92
2023-09-15T05:37:56.441Z,18.35
2023-09-15T05:40:25.186Z,20.73
2023-09-15T05:42:55.823Z,21.58
2023-09-15T05:45:24.333Z,18.83
2023-09-15T05:47:54.477Z,16.33
2023-09-15T05:50:23.155Z,18.25
2023-09-15T05:52:53.033Z,15.23
2023-09-15T05:55:24.210Z,17.65
2023-09-15T05:57:53.145Z,15.57
2023-09-15T06:00:21.740Z,17.75
2023-09-15T06:02:50.571Z,13.80
2023-09-15T06:05:26.229Z,12.40
2023-09-15T06:07:58.733Z,13.32
2023-09-15T06:10:27.360Z,15.82
2023-09-15T06:12:56.633Z,11.50
2023-09-15T06:15:27.909Z,13.23
2023-09-15T06:17:56.842Z,10.45
2023-09-15T06:20:27.964Z,12.95
2023-09-15T06:25:25.803Z,14.25
2023-09-15T06:28:01.843Z,11.50
2023-09-15T06:30:36.181Z,12.35
2023-09-15T06:33:05.050Z,10.55
2023-09-15T06:35:37.490Z,13.38
2023-09-15T06:38:09.072Z,9.52
2023-09-15T06:40:37.627Z,8.05
2023-09-15T06:43:08.511Z,8.70
2023-09-15T06:45:40.375Z,8.30
2023-09-15T06:48:09.295Z,7.60
2023-09-15T06:50:39.540Z,8.57
2023-09-15T06:53:08.255Z,9.32
2023-09-15T06:55:36.801Z,8.60
2023-09-15T06:58:08.272Z,10.40
2023-09-15T07:00:40.916Z,8.32
2023-09-15T07:03:09.528Z,10.23
2023-09-15T07:05:42.724Z,8.48
2023-09-15T07:08:11.338Z,8.85
2023-09-15T07:10:42.343Z,9.30
2023-09-15T07:13:11.474Z,9.60
2023-09-15T07:15:54.976Z,9.93
2023-09-15T07:18:23.285Z,11.68
2023-09-15T07:20:52.904Z,9.32
2023-09-15T07:23:28.847Z,10.85
2023-09-15T07:25:57.490Z,8.13
2023-09-15T07:28:26.353Z,8.30
2023-09-15T07:31:03.483Z,8.02
2023-09-15T07:33:34.518Z,9.00
2023-09-15T07:36:13.381Z,7.53
2023-09-15T07:38:42.262Z,7.50
2023-09-15T07:41:11.976Z,8.50
2023-09-15T07:43:40.772Z,9.35
2023-09-15T07:46:14.053Z,9.48
2023-09-15T07:48:44.558Z,9.27
2023-09-15T07:51:15.223Z,8.43
2023-09-15T07:53:45.241Z,9.63
2023-09-15T07:56:14.547Z,10.52
2023-09-15T07:58:46.069Z,7.93
2023-09-15T08:01:14.715Z,7.75
2023-09-15T08:03:43.745Z,7.90
2023-09-15T08:06:16.732Z,8.05
2023-09-15T08:08:47.519Z,8.82
2023-09-15T08:11:16.989Z,7.45
2023-09-15T08:13:47.722Z,8.70
2023-09-15T08:16:17.205Z,7.75
2023-09-15T08:18:48.270Z,7.60
2023-09-15T08:21:19.153Z,8.57
2023-09-15T08:23:47.615Z,8.07
2023-09-15T08:26:16.142Z,10.45
2023-09-15T08:28:46.171Z,7.65
2023-09-15T08:31:17.890Z,7.88
2023-09-15T08:33:47.505Z,7.97
2023-09-15T08:36:16.188Z,8.75
2023-09-15T08:38:46.647Z,7.95
2023-09-15T08:41:24.893Z,7.85
2023-09-15T08:43:54.266Z,7.70
2023-09-15T08:46:24.240Z,9.23
2023-09-15T08:49:01.230Z,8.73
2023-09-15T08:51:33.060Z,9.07
2023-09-15T08:54:06.238Z,10.38
2023-09-15T08:56:35.701Z,8.98
2023-09-15T08:59:06.051Z,7.05
2023-09-15T09:01:35.942Z,7.80
2023-09-15T09:04:04.915Z,7.10
2023-09-15T09:06:36.224Z,8.27
2023-09-15T09:09:06.805Z,10.98
2023-09-15T09:11:35.339Z,7.80
2023-09-15T09:14:06.748Z,9.00
2023-09-15T09:16:35.512Z,8.73
2023-09-15T09:19:07.441Z,10.02
2023-09-15T09:21:36.478Z,8.35
2023-09-15T09:24:07.446Z,8.18
2023-09-15T09:26:36.193Z,9.48
2023-09-15T09:29:04.956Z,9.35
2023-09-15T09:31:33.650Z,7.70
2023-09-15T09:34:02.329Z,7.28
2023-09-15T09:36:30.771Z,7.25
2023-09-15T09:39:00.758Z,7.00
2023-09-15T09:41:31.384Z,7.35
2023-09-15T09:44:05.600Z,6.80
2023-09-15T09:46:34.301Z,7.07
2023-09-15T09:49:03.425Z,8.18
2023-09-15T09:51:32.356Z,7.97
2023-09-15T09:54:00.725Z,6.88
2023-09-15T09:56:34.222Z,6.18
2023-09-15T09:59:11.835Z,5.35
2023-09-15T10:01:41.900Z,8.00
2023-09-15T10:04:10.687Z,4.57
2023-09-15T10:06:39.748Z,4.55
2023-09-15T10:09:08.651Z,6.15
2023-09-15T10:11:39.006Z,8.70
2023-09-15T10:14:08.026Z,5.90
2023-09-15T10:16:39.120Z,6.53
2023-09-15T10:19:09.130Z,5.70
2023-09-15T10:21:38.830Z,5.35
2023-09-15T10:24:10.385Z,5.20
2023-09-15T10:26:43.022Z,7.38
2023-09-15T10:29:17.295Z,4.40
2023-09-15T10:31:47.152Z,4.50
2023-09-15T10:34:17.590Z,4.70
2023-09-15T10:36:47.341Z,5.57
2023-09-15T10:39:16.215Z,5.35
2023-09-15T10:41:46.530Z,6.25
2023-09-15T10:44:15.494Z,5.13
2023-09-15T10:46:45.274Z,4.82
2023-09-15T10:49:18.018Z,5.70
2023-09-15T10:51:57.354Z,4.72
2023-09-15T10:54:32.855Z,6.05
2023-09-15T10:57:03.099Z,4.93
2023-09-15T10:59:31.754Z,5.85
2023-09-15T11:02:00.316Z,5.20
2023-09-15T11:04:30.461Z,6.18
2023-09-15T11:06:59.449Z,4.68
2023-09-15T11:09:28.492Z,4.90
2023-09-15T11:11:57.174Z,5.18
2023-09-15T11:14:27.479Z,5.93
2023-09-15T11:16:57.918Z,5.22
2023-09-15T11:19:31.845Z,5.05
2023-09-15T11:22:04.846Z,4.80
2023-09-15T11:24:35.368Z,4.63
2023-09-15T11:27:04.275Z,4.97
2023-09-15T11:29:34.340Z,5.70
2023-09-15T11:32:04.403Z,5.90
2023-09-15T11:34:34.614Z,4.45
2023-09-15T11:37:03.599Z,3.67
2023-09-15T11:39:32.576Z,5.25
2023-09-15T11:42:03.353Z,5.32
2023-09-15T11:44:33.367Z,4.68
2023-09-15T11:47:03.825Z,6.45
2023-09-15T11:49:33.026Z,4.57
2023-09-15T11:52:01.607Z,7.05
2023-09-15T11:54:30.327Z,6.65
2023-09-15T11:56:59.214Z,6.68
2023-09-15T11:59:28.098Z,5.53
2023-09-15T12:02:01.155Z,5.75
2023-09-15T12:04:30.576Z,7.63
2023-09-15T12:07:00.556Z,5.82
2023-09-15T12:09:29.469Z,4.85
2023-09-15T12:11:57.938Z,4.57
2023-09-15T12:14:27.400Z,5.15
2023-09-15T12:17:00.212Z,5.25
2023-09-15T12:19:29.959Z,5.63
2023-09-15T12:22:01.052Z,6.10
2023-09-15T12:24:30.379Z,8.32
2023-09-15T12:27:00.679Z,6.43
2023-09-15T12:29:29.888Z,6.60
2023-09-15T12:32:05.738Z,5.60
2023-09-15T12:34:35.324Z,5.72
2023-09-15T12:37:09.355Z,8.52
2023-09-15T12:39:37.656Z,6.50
2023-09-15T12:42:14.832Z,6.35
2023-09-15T12:44:44.398Z,6.00
2023-09-15T12:47:17.710Z,7.30
2023-09-15T12:49:46.730Z,7.33
2023-09-15T12:52:16.273Z,6.45
2023-09-15T12:54:45.129Z,7.82
2023-09-15T12:57:15.285Z,6.30
2023-09-15T12:59:47.336Z,9.30
2023-09-15T13:02:17.413Z,7.72
2023-09-15T13:04:46.401Z,6.07
2023-09-15T13:07:15.638Z,9.52
2023-09-15T13:09:47.344Z,5.80
2023-09-15T13:12:15.953Z,6.28
2023-09-15T13:14:44.764Z,5.70
2023-09-15T13:17:13.329Z,5.93
2023-09-15T13:19:43.608Z,7.13
2023-09-15T13:22:12.368Z,9.63
2023-09-15T13:24:40.939Z,7.97
2023-09-15T13:27:09.633Z,8.07
2023-09-15T13:29:39.336Z,5.90
2023-09-15T13:32:08.226Z,9.70
2023-09-15T13:34:37.473Z,5.47
2023-09-15T13:37:08.041Z,7.10
2023-09-15T13:39:39.708Z,5.68
2023-09-15T13:42:08.534Z,7.65
2023-09-15T13:44:37.715Z,7.82
2023-09-15T13:47:06.343Z,10.73
2023-09-15T13:49:35.842Z,6.97
2023-09-15T13:52:05.027Z,9.98
2023-09-15T13:54:35.731Z,9.93
2023-09-15T13:57:10.991Z,6.35
2023-09-15T13:59:49.768Z,8.32
2023-09-15T14:04:52.193Z,10.10
2023-09-15T14:07:21.702Z,7.18
2023-09-15T14:09:52.421Z,8.15
2023-09-15T14:12:21.708Z,6.07
2023-09-15T14:14:50.064Z,6.57
2023-09-15T14:17:25.677Z,8.00
2023-09-15T14:19:54.575Z,9.10
2023-09-15T14:22:23.584Z,14.68
2023-09-15T14:24:54.084Z,6.88
2023-09-15T14:27:22.333Z,7.43
2023-09-15T14:29:51.537Z,6.53
2023-09-15T14:32:20.818Z,6.53
2023-09-15T14:34:51.288Z,9.10
2023-09-15T14:37:20.663Z,6.22
2023-09-15T14:39:51.354Z,8.93
2023-09-15T14:44:53.460Z,11.60
2023-09-15T14:47:24.974Z,6.75
2023-09-15T14:49:53.636Z,7.20
2023-09-15T14:52:26.669Z,7.95
2023-09-15T14:54:57.455Z,6.80
2023-09-15T14:57:27.754Z,7.57
2023-09-15T14:59:59.876Z,6.68
2023-09-15T15:02:33.350Z,9.13
2023-09-15T15:05:02.219Z,7.18
2023-09-15T15:07:30.519Z,7.10
2023-09-15T15:09:59.134Z,7.10
2023-09-15T15:12:29.659Z,6.45
2023-09-15T15:14:57.989Z,6.80
2023-09-15T15:17:27.148Z,7.63
2023-09-15T15:19:56.930Z,7.50
2023-09-15T15:22:26.722Z,7.03
2023-09-15T15:24:55.651Z,6.25
2023-09-15T15:27:24.358Z,6.32
2023-09-15T15:29:58.940Z,6.32
2023-09-15T15:32:28.465Z,6.18
2023-09-15T15:34:58.148Z,8.27
2023-09-15T15:37:27.222Z,6.80
2023-09-15T15:39:58.461Z,7.22
2023-09-15T15:42:27.004Z,8.20
2023-09-15T15:44:57.931Z,9.07
2023-09-15T15:47:27.027Z,6.88
2023-09-15T15:49:58.251Z,6.40
2023-09-15T15:54:56.495Z,7.32
2023-09-15T15:57:25.710Z,6.72
2023-09-15T15:59:55.794Z,8.98
2023-09-15T16:02:29.973Z,8.27
2023-09-15T16:04:59.883Z,9.57
2023-09-15T16:07:28.651Z,7.03
2023-09-15T16:09:58.662Z,6.95
2023-09-15T16:12:28.752Z,7.95
2023-09-15T16:14:59.696Z,6.95
2023-09-15T16:17:37.910Z,7.50
2023-09-15T16:20:10.159Z,7.63
2023-09-15T16:22:39.421Z,8.77
2023-09-15T16:25:12.426Z,7.25
2023-09-15T16:27:41.604Z,6.88
2023-09-15T16:30:10.755Z,12.52
2023-09-15T16:32:41.309Z,6.55
2023-09-15T16:35:14.517Z,8.00
2023-09-15T16:37:43.756Z,7.40
2023-09-15T16:40:13.661Z,7.72
2023-09-15T16:42:42.279Z,7.00
2023-09-15T16:45:11.553Z,9.32
2023-09-15T16:47:41.924Z,9.88
2023-09-15T16:50:12.556Z,7.32
2023-09-15T16:52:43.854Z,9.10
2023-09-15T16:55:14.559Z,9.13
2023-09-15T16:57:44.592Z,8.25
2023-09-15T17:00:17.101Z,7.68
2023-09-15T17:02:48.421Z,8.70
2023-09-15T17:05:18.274Z,9.23
2023-09-15T17:07:47.589Z,7.32
2023-09-15T17:10:16.483Z,12.73
2023-09-15T17:12:47.701Z,12.05
2023-09-15T17:15:16.300Z,8.50
2023-09-15T17:17:46.345Z,9.30
2023-09-15T17:20:17.046Z,7.72
2023-09-15T17:22:45.916Z,7.20
2023-09-15T17:25:15.175Z,7.10
2023-09-15T17:27:46.644Z,7.50
2023-09-15T17:30:16.210Z,7.65
2023-09-15T17:32:46.127Z,8.68
2023-09-15T17:35:18.196Z,8.68
2023-09-15T17:37:48.779Z,8.27
2023-09-15T17:40:20.396Z,9.73
2023-09-15T17:45:21.773Z,8.65
2023-09-15T17:47:50.727Z,7.80
2023-09-15T17:50:22.054Z,8.13
2023-09-15T17:52:55.604Z,9.38
2023-09-15T17:55:24.303Z,8.00
2023-09-15T17:57:53.243Z,10.02
2023-09-15T18:00:22.886Z,10.27
2023-09-15T18:02:51.895Z,10.25
2023-09-15T18:05:22.513Z,10.90
2023-09-15T18:07:50.901Z,10.10
2023-09-15T18:10:21.113Z,8.68
2023-09-15T18:12:51.829Z,8.82
2023-09-15T18:15:20.789Z,7.63
2023-09-15T18:17:53.125Z,8.18
2023-09-15T18:20:25.618Z,8.43
2023-09-15T18:22:54.102Z,9.05
2023-09-15T18:25:22.994Z,12.52
2023-09-15T18:27:51.485Z,8.30
2023-09-15T18:30:21.452Z,9.07
2023-09-15T18:32:52.859Z,9.60
2023-09-15T18:35:23.489Z,8.35
2023-09-15T18:37:52.138Z,7.53
2023-09-15T18:40:20.331Z,9.18
2023-09-15T18:42:49.523Z,9.93
2023-09-15T18:45:17.875Z,13.27
2023-09-15T18:47:47.250Z,12.93
2023-09-15T18:50:17.293Z,11.35
2023-09-15T18:52:48.055Z,10.90
2023-09-15T18:55:16.733Z,11.07
2023-09-15T18:57:45.338Z,11.38
2023-09-15T19:00:16.126Z,11.18
2023-09-15T19:02:46.700Z,10.05
2023-09-15T19:05:16.064Z,7.88
2023-09-15T19:07:44.421Z,10.88
2023-09-15T19:10:15.542Z,10.73
2023-09-15T19:12:44.564Z,10.77
2023-09-15T19:15:13.668Z,10.02
2023-09-15T19:17:42.648Z,9.55
2023-09-15T19:20:15.161Z,8.38
2023-09-15T19:22:43.709Z,8.35
2023-09-15T19:25:15.363Z,9.90
2023-09-15T19:27:45.470Z,8.27
2023-09-15T19:30:16.282Z,9.52
2023-09-15T19:32:45.345Z,10.65
2023-09-15T19:35:15.820Z,8.75
2023-09-15T19:37:45.935Z,8.43
2023-09-15T19:40:15.708Z,9.15
2023-09-15T19:42:49.039Z,12.85
2023-09-15T19:45:17.798Z,10.00
2023-09-15T19:47:47.809Z,10.20
2023-09-15T19:50:17.559Z,10.70
2023-09-15T19:52:46.013Z,9.18
2023-09-15T19:55:14.581Z,8.02
2023-09-15T19:57:54.393Z,11.30
2023-09-15T20:00:24.302Z,8.30
2023-09-15T20:02:54.250Z,12.57
2023-09-15T20:05:26.354Z,11.30
2023-09-15T20:07:55.542Z,9.00
2023-09-15T20:10:24.974Z,8.65
2023-09-15T20:12:55.439Z,9.40
2023-09-15T20:15:25.550Z,9.15
2023-09-15T20:17:59.253Z,8.15
2023-09-15T20:20:28.435Z,7.38
2023-09-15T20:22:58.834Z,7.85
2023-09-15T20:25:30.145Z,9.15
2023-09-15T20:28:02.355Z,10.68
2023-09-15T20:30:32.626Z,7.97
2023-09-15T20:33:01.042Z,9.73
2023-09-15T20:35:32.509Z,7.57
2023-09-15T20:38:00.928Z,9.77
2023-09-15T20:40:29.491Z,8.77
2023-09-15T20:42:58.534Z,10.02
2023-09-15T20:45:32.159Z,9.23
2023-09-15T20:48:01.641Z,8.77
2023-09-15T20:50:31.331Z,8.35
2023-09-15T20:52:59.888Z,8.15
2023-09-15T20:55:33.630Z,9.27
2023-09-15T20:58:04.536Z,8.40
2023-09-15T21:00:38.858Z,7.90
2023-09-15T21:03:07.781Z,10.25
2023-09-15T21:05:36.584Z,8.07
2023-09-15T21:08:05.468Z,7.55
2023-09-15T21:10:33.903Z,9.00
2023-09-15T21:13:03.315Z,7.97
2023-09-15T21:15:33.128Z,7.53
2023-09-15T21:18:04.055Z,7.43
2023-09-15T21:20:33.380Z,8.82
2023-09-15T21:23:02.158Z,8.02
2023-09-15T21:25:35.479Z,8.23
2023-09-15T21:28:05.657Z,6.82
2023-09-15T21:30:34.300Z,7.32
2023-09-15T21:33:07.873Z,9.20
2023-09-15T21:35:36.426Z,8.13
2023-09-15T21:38:05.396Z,8.48
2023-09-15T21:40:34.110Z,9.45
2023-09-15T21:43:03.906Z,8.50
2023-09-15T21:45:33.686Z,12.50
2023-09-15T21:48:03.980Z,8.68
2023-09-15T21:50:34.873Z,7.82
2023-09-15T21:53:03.531Z,8.07
2023-09-15T21:55:32.279Z,8.90
2023-09-15T21:58:00.644Z,8.35
2023-09-15T22:00:33.516Z,11.18
2023-09-15T22:03:02.667Z,8.18
2023-09-15T22:05:31.392Z,9.00
2023-09-15T22:08:04.131Z,8.07
2023-09-15T22:10:33.211Z,11.73
2023-09-15T22:13:02.328Z,9.68
2023-09-15T22:15:31.264Z,9.90
2023-09-15T22:18:01.231Z,9.20
2023-09-15T22:20:29.930Z,12.85
2023-09-15T22:22:58.590Z,8.63
2023-09-15T22:25:31.581Z,7.85
2023-09-15T22:28:00.991Z,7.93
2023-09-15T22:30:30.528Z,10.30
2023-09-15T22:33:00.538Z,8.88
2023-09-15T22:35:29.339Z,9.63
2023-09-15T22:37:58.739Z,10.35
2023-09-15T22:43:00.027Z,10.23
2023-09-15T22:45:30.259Z,10.00
2023-09-15T22:48:00.560Z,8.18
2023-09-15T22:50:29.127Z,8.52
2023-09-15T22:52:57.826Z,7.35
2023-09-15T22:55:28.331Z,9.63
2023-09-15T22:57:58.557Z,10.75
2023-09-15T23:00:26.953Z,8.30
2023-09-15T23:02:55.609Z,9.82
2023-09-15T23:05:24.330Z,9.48
2023-09-15T23:07:52.609Z,8.02
2023-09-15T23:10:22.932Z,7.93
2023-09-15T23:12:51.485Z,8.52
2023-09-15T23:15:22.090Z,8.75
2023-09-15T23:17:50.963Z,7.97
2023-09-15T23:20:19.891Z,8.23
2023-09-15T23:22:48.357Z,7.85
2023-09-15T23:25:16.743Z,10.90
2023-09-15T23:27:49.768Z,8.85
2023-09-15T23:30:18.929Z,8.65
2023-09-15T23:32:49.637Z,8.85
2023-09-15T23:35:18.188Z,8.75
2023-09-15T23:37:47.954Z,10.38
2023-09-15T23:40:16.451Z,9.77
2023-09-15T23:42:44.980Z,8.60
2023-09-15T23:45:14.680Z,7.72
2023-09-15T23:47:43.193Z,8.70
2023-09-15T23:50:14.155Z,8.93
2023-09-15T23:52:42.677Z,11.80
2023-09-15T23:55:11.836Z,8.85
2023-09-15T23:57:41.338Z,9.50
